Time;durP1;ratioP1;P1;durP2;ratioP2;P2;SDS_P1;SDS_P2;PMS_P1;PMS_P2;Temp;Humidity;BMP_temperature;BMP_pressure;BME280_temperature;BME280_humidity;BME280_pressure;Samples;Min_cycle;Max_cycle;Signal;HPM_P1;HPM_P2
2021/03/23 00:01:40;;;;;;;30.55;28.25;;;6.50;78.00;;;;;;5096780;28;20199;-77
2021/03/23 00:04:08;;;;;;;30.65;28.42;;;6.60;77.20;;;;;;5097072;28;20195;-77
2021/03/23 00:06:34;;;;;;;32.53;29.52;;;6.60;76.70;;;;;;5096554;28;20211;-78
2021/03/23 00:09:02;;;;;;;32.22;29.63;;;6.50;77.50;;;;;;5096739;28;20574;-77
2021/03/23 00:11:31;;;;;;;29.75;27.38;;;6.50;79.00;;;;;;5095865;28;20274;-78
2021/03/23 00:13:59;;;;;;;30.27;27.98;;;6.50;77.20;;;;;;5096774;28;20191;-77
2021/03/23 00:16:29;;;;;;;30.48;28.05;;;6.50;77.00;;;;;;5096014;28;20214;-77
2021/03/23 00:18:56;;;;;;;30.88;28.23;;;6.50;77.10;;;;;;5096342;28;20231;-79
2021/03/23 00:21:24;;;;;;;31.17;28.42;;;6.40;77.40;;;;;;5096922;28;20202;-78
2021/03/23 00:23:51;;;;;;;30.33;28.02;;;6.40;77.40;;;;;;5096736;28;20200;-78
2021/03/23 00:26:18;;;;;;;32.40;29.65;;;6.30;78.40;;;;;;5096559;28;20190;-78
2021/03/23 00:28:47;;;;;;;31.95;29.25;;;6.50;78.20;;;;;;5095933;28;20226;-77
2021/03/23 00:31:14;;;;;;;31.48;29.02;;;6.50;78.70;;;;;;5096389;28;20537;-79
2021/03/23 00:33:41;;;;;;;31.45;28.95;;;6.50;77.30;;;;;;5096219;28;20223;-78
2021/03/23 00:36:09;;;;;;;30.98;28.65;;;6.50;78.70;;;;;;5095734;28;20269;-78
2021/03/23 00:38:37;;;;;;;31.73;29.20;;;6.40;77.90;;;;;;5096136;28;20206;-78
2021/03/23 00:41:06;;;;;;;30.52;28.08;;;6.40;77.80;;;;;;5095696;28;20199;-78
2021/03/23 00:43:32;;;;;;;30.02;27.83;;;6.40;77.60;;;;;;5095628;28;20596;-77
2021/03/23 00:45:58;;;;;;;30.60;28.30;;;6.50;76.90;;;;;;5095427;28;20260;-78
2021/03/23 00:48:25;;;;;;;32.10;29.50;;;6.40;77.50;;;;;;5095495;28;20263;-78
2021/03/23 00:50:52;;;;;;;32.28;29.60;;;6.30;77.20;;;;;;5096977;28;20215;-77
2021/03/23 00:53:18;;;;;;;32.65;29.83;;;6.20;77.70;;;;;;5101249;28;20213;-77
2021/03/23 00:55:44;;;;;;;33.50;30.73;;;6.20;78.00;;;;;;5100786;28;20248;-77
2021/03/23 00:58:11;;;;;;;31.35;28.92;;;6.20;78.20;;;;;;5098636;28;20201;-77
2021/03/23 01:00:38;;;;;;;32.65;29.88;;;6.20;78.60;;;;;;5099687;28;20303;-77
2021/03/23 01:03:05;;;;;;;30.98;28.58;;;6.20;78.30;;;;;;5098707;28;20197;-77
2021/03/23 01:05:34;;;;;;;33.30;30.33;;;6.20;78.20;;;;;;5099213;28;20187;-77
2021/03/23 01:08:02;;;;;;;32.30;29.67;;;6.10;78.70;;;;;;5100537;28;20199;-77
2021/03/23 01:10:30;;;;;;;29.80;27.30;;;6.10;78.90;;;;;;5099985;28;20246;-77
2021/03/23 01:12:57;;;;;;;29.83;27.35;;;6.00;79.20;;;;;;5099890;28;20196;-77
2021/03/23 01:15:26;;;;;;;32.45;29.58;;;6.00;79.50;;;;;;5099244;28;20286;-77
2021/03/23 01:17:52;;;;;;;31.42;28.75;;;5.90;79.90;;;;;;5099041;28;20280;-77
2021/03/23 01:20:21;;;;;;;31.58;29.00;;;5.90;81.00;;;;;;5100614;28;20259;-77
2021/03/23 01:22:47;;;;;;;32.08;29.15;;;6.10;80.60;;;;;;5098684;28;20199;-77
2021/03/23 01:25:15;;;;;;;32.65;29.83;;;6.10;80.10;;;;;;5099774;28;20188;-77
2021/03/23 01:27:41;;;;;;;31.65;29.00;;;6.10;79.80;;;;;;5101221;28;20263;-77
2021/03/23 01:30:10;;;;;;;32.40;29.40;;;6.00;80.00;;;;;;5099842;28;20263;-77
2021/03/23 01:32:36;;;;;;;33.00;30.45;;;6.10;79.80;;;;;;5099787;28;20193;-77
2021/03/23 01:35:04;;;;;;;34.63;30.65;;;6.20;79.50;;;;;;5098902;28;20230;-77
2021/03/23 01:37:30;;;;;;;33.80;31.00;;;6.20;80.30;;;;;;5099065;28;20213;-77
2021/03/23 01:39:57;;;;;;;35.38;32.08;;;6.20;80.00;;;;;;5099659;28;20219;-77
2021/03/23 01:42:37;;;;;;;33.80;30.65;;;6.20;79.50;;;;;;5098460;28;20203;-77
2021/03/23 01:45:18;;;;;;;34.95;31.40;;;6.20;79.40;;;;;;5099882;28;20232;-77
2021/03/23 01:47:46;;;;;;;32.65;29.60;;;6.10;79.60;;;;;;5099117;28;20203;-78
2021/03/23 01:50:13;;;;;;;33.80;30.80;;;6.00;80.00;;;;;;5099789;28;20302;-77
2021/03/23 01:52:40;;;;;;;33.03;30.00;;;6.00;80.30;;;;;;5099423;28;20199;-77
2021/03/23 01:55:09;;;;;;;35.25;31.70;;;6.10;80.30;;;;;;5097437;28;20221;-77
2021/03/23 01:57:39;;;;;;;33.20;30.10;;;6.10;80.70;;;;;;5097293;28;20580;-77
2021/03/23 02:00:09;;;;;;;31.60;28.90;;;6.00;85.20;;;;;;5098992;28;20566;-77
2021/03/23 02:02:36;;;;;;;31.70;28.63;;;6.00;85.20;;;;;;5099057;28;20203;-77
2021/03/23 02:05:03;;;;;;;35.25;31.77;;;5.90;83.60;;;;;;5100611;28;20195;-77
2021/03/23 02:07:29;;;;;;;33.05;30.23;;;5.90;86.10;;;;;;5102169;28;20200;-77
2021/03/23 02:09:57;;;;;;;34.88;31.50;;;5.90;85.80;;;;;;5104035;28;20215;-77
2021/03/23 02:12:27;;;;;;;33.60;30.80;;;6.00;83.60;;;;;;5102425;28;20284;-77
2021/03/23 02:14:54;;;;;;;36.05;32.65;;;6.00;82.50;;;;;;5103653;28;20219;-77
2021/03/23 02:17:26;;;;;;;35.00;31.80;;;6.00;81.60;;;;;;5102390;28;20221;-77
2021/03/23 02:19:55;;;;;;;35.17;31.83;;;6.00;82.30;;;;;;5102989;28;20231;-77
2021/03/23 02:22:26;;;;;;;34.97;31.67;;;6.00;84.70;;;;;;5102585;28;20219;-77
2021/03/23 02:24:52;;;;;;;35.05;31.70;;;6.00;84.50;;;;;;5102583;28;20195;-77
2021/03/23 02:27:21;;;;;;;36.40;32.10;;;6.10;83.90;;;;;;5102580;28;20195;-77
2021/03/23 02:29:48;;;;;;;35.83;32.50;;;6.10;84.50;;;;;;5102081;28;20222;-77
2021/03/23 02:32:15;;;;;;;34.45;31.55;;;6.20;84.30;;;;;;5100294;28;20195;-77
2021/03/23 02:34:41;;;;;;;35.83;32.42;;;6.20;83.40;;;;;;5100251;28;20282;-77
2021/03/23 02:37:08;;;;;;;37.55;34.05;;;6.20;82.70;;;;;;5100713;28;20282;-77
2021/03/23 02:39:36;;;;;;;36.90;33.30;;;6.20;81.50;;;;;;5100890;28;20277;-77
2021/03/23 02:42:03;;;;;;;38.03;34.53;;;6.20;82.00;;;;;;5101166;28;20257;-77
2021/03/23 02:44:38;;;;;;;40.47;34.88;;;6.20;81.90;;;;;;5101925;28;20672;-77
2021/03/23 02:47:05;;;;;;;38.38;34.45;;;6.20;81.80;;;;;;5100809;28;20199;-77
2021/03/23 02:49:32;;;;;;;36.63;33.03;;;6.30;83.20;;;;;;5100717;28;20298;-77
2021/03/23 02:51:58;;;;;;;38.95;35.08;;;6.30;85.00;;;;;;5101088;28;20191;-77
2021/03/23 02:54:24;;;;;;;40.30;36.20;;;6.40;83.50;;;;;;5102383;28;20254;-77
2021/03/23 02:56:52;;;;;;;39.38;35.65;;;6.40;81.70;;;;;;5102244;28;20266;-77
2021/03/23 02:59:18;;;;;;;39.70;35.70;;;6.40;81.20;;;;;;5100419;28;20243;-77
2021/03/23 03:01:44;;;;;;;41.58;37.33;;;6.30;81.00;;;;;;5100074;28;20200;-77
2021/03/23 03:04:11;;;;;;;85.47;37.70;;;6.30;80.80;;;;;;5101921;28;20195;-77
2021/03/23 03:06:37;;;;;;;41.17;37.13;;;6.30;81.00;;;;;;5101220;28;20244;-77
2021/03/23 03:09:04;;;;;;;42.13;37.72;;;6.40;81.20;;;;;;5100609;28;20576;-77
2021/03/23 03:11:31;;;;;;;41.63;37.60;;;6.40;79.90;;;;;;5101358;28;20200;-77
2021/03/23 03:13:58;;;;;;;40.05;36.15;;;6.30;80.80;;;;;;5100007;28;20193;-77
2021/03/23 03:16:25;;;;;;;38.95;35.35;;;6.30;80.40;;;;;;5100450;28;20230;-77
2021/03/23 03:18:51;;;;;;;40.22;36.13;;;6.20;80.50;;;;;;5097838;28;20302;-77
2021/03/23 03:21:17;;;;;;;41.75;37.70;;;6.20;80.70;;;;;;5097200;28;20199;-78
2021/03/23 03:23:44;;;;;;;43.88;39.38;;;6.20;80.70;;;;;;5096755;28;20649;-78
2021/03/23 03:26:10;;;;;;;42.30;38.40;;;6.20;80.70;;;;;;5096967;28;20193;-77
2021/03/23 03:28:37;;;;;;;41.17;37.30;;;6.20;80.90;;;;;;5096727;28;20698;-78
2021/03/23 03:31:05;;;;;;;41.22;37.20;;;6.20;80.90;;;;;;5099330;28;20197;-77
2021/03/23 03:33:32;;;;;;;40.95;36.95;;;6.20;80.70;;;;;;5101083;28;20228;-77
2021/03/23 03:35:58;;;;;;;42.13;37.63;;;6.30;80.30;;;;;;5104789;28;20219;-77
2021/03/23 03:38:26;;;;;;;41.22;37.13;;;6.30;80.30;;;;;;5099789;28;20263;-77
2021/03/23 03:40:54;;;;;;;42.80;38.80;;;6.30;80.40;;;;;;5099637;28;20213;-77
2021/03/23 03:43:22;;;;;;;41.45;37.35;;;6.20;80.50;;;;;;5099739;28;20300;-77
2021/03/23 03:45:49;;;;;;;40.35;36.53;;;6.20;80.70;;;;;;5098961;28;20247;-77
2021/03/23 03:48:16;;;;;;;42.85;38.05;;;6.20;80.70;;;;;;5102106;28;20207;-77
2021/03/23 03:50:43;;;;;;;92.97;41.45;;;6.20;86.20;;;;;;5100269;28;20227;-77
2021/03/23 03:53:11;;;;;;;40.88;36.78;;;6.20;85.30;;;;;;5099959;28;20289;-77
2021/03/23 03:55:39;;;;;;;40.35;36.35;;;6.20;89.50;;;;;;5099871;28;20211;-77
2021/03/23 03:58:06;;;;;;;51.58;38.85;;;6.20;86.60;;;;;;5100267;28;20202;-77
2021/03/23 04:00:33;;;;;;;42.60;38.55;;;6.20;87.50;;;;;;5100817;28;20278;-77
2021/03/23 04:03:00;;;;;;;40.50;36.70;;;6.20;87.20;;;;;;5101461;28;20198;-77
2021/03/23 04:05:29;;;;;;;41.20;37.15;;;6.20;85.80;;;;;;5100416;28;20255;-76
2021/03/23 04:07:56;;;;;;;42.85;38.85;;;6.30;84.40;;;;;;5099560;28;20360;-77
2021/03/23 04:10:23;;;;;;;42.13;37.70;;;6.20;83.10;;;;;;5099742;28;20222;-77
2021/03/23 04:12:50;;;;;;;42.67;38.33;;;6.20;82.50;;;;;;5100807;28;20221;-77
2021/03/23 04:15:19;;;;;;;41.47;37.00;;;6.20;87.60;;;;;;5100237;28;20225;-77
2021/03/23 04:17:46;;;;;;;41.60;37.33;;;6.20;86.40;;;;;;5099502;28;20197;-77
2021/03/23 04:20:13;;;;;;;41.13;37.03;;;6.20;86.70;;;;;;5100369;28;20689;-77
2021/03/23 04:22:41;;;;;;;42.92;38.60;;;6.20;84.80;;;;;;5100544;28;20195;-77
2021/03/23 04:25:09;;;;;;;43.25;39.08;;;6.20;84.70;;;;;;5099230;28;20658;-77
2021/03/23 04:27:35;;;;;;;42.00;37.70;;;6.20;84.20;;;;;;5099153;28;20256;-77
2021/03/23 04:30:03;;;;;;;41.38;37.05;;;6.20;83.50;;;;;;5100361;28;20227;-77
2021/03/23 04:32:29;;;;;;;42.13;38.13;;;6.20;82.70;;;;;;5099158;28;20197;-77
2021/03/23 04:34:55;;;;;;;48.55;39.92;;;6.10;82.70;;;;;;5100318;28;20846;-77
2021/03/23 04:37:21;;;;;;;263.13;58.33;;;6.10;84.20;;;;;;5100587;28;20200;-77
2021/03/23 04:39:49;;;;;;;43.72;39.60;;;6.10;86.60;;;;;;5100280;28;20220;-77
2021/03/23 04:42:15;;;;;;;43.25;38.85;;;6.00;84.70;;;;;;5097353;28;20213;-78
2021/03/23 04:44:42;;;;;;;239.77;52.70;;;6.10;84.40;;;;;;5095907;28;20209;-76
2021/03/23 04:47:08;;;;;;;45.15;39.60;;;6.10;86.20;;;;;;5101295;28;20193;-78
2021/03/23 04:49:35;;;;;;;40.65;36.55;;;6.10;85.10;;;;;;5096547;28;20228;-78
2021/03/23 04:52:01;;;;;;;39.90;36.00;;;6.10;83.70;;;;;;5096396;28;20260;-76
2021/03/23 04:54:28;;;;;;;43.92;39.47;;;6.20;81.80;;;;;;5097424;28;20196;-77
2021/03/23 04:56:55;;;;;;;43.78;39.17;;;6.30;80.60;;;;;;5098249;28;20302;-77
2021/03/23 04:59:21;;;;;;;49.80;41.30;;;6.30;80.80;;;;;;5097434;28;20236;-77
2021/03/23 05:01:48;;;;;;;46.38;41.88;;;6.20;81.10;;;;;;5099029;28;20733;-77
2021/03/23 05:04:18;;;;;;;45.17;39.92;;;6.10;83.70;;;;;;5099708;28;20199;-77
2021/03/23 05:06:44;;;;;;;44.35;39.65;;;6.10;83.10;;;;;;5097854;28;20191;-77
2021/03/23 05:09:11;;;;;;;43.17;38.38;;;6.10;82.50;;;;;;5097619;28;20254;-77
2021/03/23 05:11:38;;;;;;;42.75;38.78;;;6.00;82.10;;;;;;5097910;28;20599;-77
2021/03/23 05:14:07;;;;;;;46.08;40.28;;;6.10;81.90;;;;;;5094212;28;20197;-77
2021/03/23 05:16:33;;;;;;;43.85;39.60;;;6.10;81.40;;;;;;5093643;28;20219;-77
2021/03/23 05:19:00;;;;;;;44.50;39.92;;;6.00;81.40;;;;;;5093838;28;20312;-76
2021/03/23 05:21:27;;;;;;;46.97;42.65;;;6.10;81.30;;;;;;5093649;28;20253;-77
2021/03/23 05:23:57;;;;;;;46.65;39.08;;;6.20;81.30;;;;;;5094212;28;20199;-76
2021/03/23 05:26:24;;;;;;;43.30;38.95;;;6.20;86.00;;;;;;5097563;28;20231;-77
2021/03/23 05:28:50;;;;;;;46.17;41.20;;;6.10;84.80;;;;;;5097765;28;20223;-77
2021/03/23 05:31:21;;;;;;;42.45;38.13;;;6.10;87.00;;;;;;5093454;28;20252;-76
2021/03/23 05:33:50;;;;;;;44.42;39.80;;;6.20;85.00;;;;;;5092740;28;20199;-76
2021/03/23 05:36:17;;;;;;;44.55;40.30;;;6.30;82.90;;;;;;5092425;28;20217;-76
2021/03/23 05:38:43;;;;;;;44.58;39.88;;;6.30;82.00;;;;;;5092450;28;20204;-76
2021/03/23 05:41:21;;;;;;;43.67;39.47;;;6.30;81.20;;;;;;5096910;28;20288;-78
2021/03/23 05:43:59;;;;;;;43.08;38.83;;;6.30;80.60;;;;;;5096736;28;20205;-76
2021/03/23 05:46:33;;;;;;;43.90;39.25;;;6.30;80.40;;;;;;5096656;28;20244;-76
2021/03/23 05:49:31;;;;;;;44.10;39.78;;;6.30;80.60;;;;;;5096684;28;20319;-76
2021/03/23 05:52:03;;;;;;;46.65;42.17;;;6.30;80.80;;;;;;5096367;28;20253;-77
2021/03/23 05:54:43;;;;;;;43.72;39.47;;;6.20;83.80;;;;;;5096471;28;20732;-77
2021/03/23 05:57:20;;;;;;;43.10;38.45;;;6.30;82.70;;;;;;5096480;28;20585;-77
2021/03/23 05:59:51;;;;;;;41.67;37.38;;;6.30;81.40;;;;;;5096350;28;20220;-76
2021/03/23 06:02:24;;;;;;;46.28;41.58;;;6.30;80.90;;;;;;5096506;28;20590;-76
2021/03/23 06:04:58;;;;;;;44.22;39.85;;;6.20;80.90;;;;;;5096756;28;20213;-76
2021/03/23 06:07:24;;;;;;;42.30;38.00;;;6.30;80.90;;;;;;5096448;28;20205;-76
2021/03/23 06:09:51;;;;;;;44.70;40.25;;;6.40;80.80;;;;;;5096393;28;20297;-76
2021/03/23 06:12:31;;;;;;;42.78;38.30;;;6.50;80.40;;;;;;5096285;28;20209;-76
2021/03/23 06:15:02;;;;;;;43.75;39.05;;;6.40;79.60;;;;;;5096339;28;20201;-76
2021/03/23 06:17:36;;;;;;;45.17;40.58;;;6.30;79.90;;;;;;5096338;28;20739;-76
2021/03/23 06:20:23;;;;;;;42.95;38.65;;;6.50;79.30;;;;;;5096249;28;20699;-76
2021/03/23 06:23:12;;;;;;;46.55;41.50;;;6.40;79.90;;;;;;5096095;28;20204;-76
2021/03/23 06:25:46;;;;;;;43.00;38.10;;;6.50;79.60;;;;;;5095894;28;20196;-77
2021/03/23 06:28:31;;;;;;;46.17;40.20;;;6.50;79.40;;;;;;5096046;28;20291;-76
2021/03/23 06:31:02;;;;;;;49.50;41.17;;;6.50;79.10;;;;;;5096153;28;20199;-78
2021/03/23 06:33:32;;;;;;;46.13;41.60;;;6.50;79.60;;;;;;5095933;28;20559;-76
2021/03/23 06:36:00;;;;;;;46.33;40.67;;;6.50;79.70;;;;;;5095464;28;20705;-76
2021/03/23 06:38:30;;;;;;;43.75;39.28;;;6.50;79.30;;;;;;5095660;28;20197;-76
2021/03/23 06:41:17;;;;;;;45.22;40.10;;;6.50;79.20;;;;;;5096062;28;20753;-76
2021/03/23 06:43:45;;;;;;;43.65;38.95;;;6.40;79.60;;;;;;5095807;28;20204;-76
2021/03/23 06:46:22;;;;;;;43.72;39.20;;;6.40;80.00;;;;;;5095770;28;20208;-78
2021/03/23 06:49:05;;;;;;;46.75;42.10;;;6.50;79.70;;;;;;5095555;28;20224;-76
2021/03/23 06:51:31;;;;;;;43.05;38.50;;;6.60;79.30;;;;;;5095351;28;20204;-76
2021/03/23 06:54:16;;;;;;;42.33;38.03;;;6.60;78.80;;;;;;5095644;28;20202;-76
2021/03/23 06:56:44;;;;;;;45.83;41.03;;;6.60;78.70;;;;;;5095182;28;20268;-76
2021/03/23 06:59:15;;;;;;;47.40;40.20;;;6.70;78.30;;;;;;5095468;28;20255;-76
2021/03/23 07:01:43;;;;;;;57.00;43.25;;;6.80;78.00;;;;;;5095405;28;20195;-77
2021/03/23 07:04:28;;;;;;;45.55;40.78;;;6.70;78.50;;;;;;5095461;28;20204;-77
2021/03/23 07:07:12;;;;;;;47.45;42.50;;;6.70;78.60;;;;;;5095168;28;20195;-77
2021/03/23 07:09:46;;;;;;;49.95;43.67;;;6.70;78.40;;;;;;5095304;28;20231;-76
2021/03/23 07:12:13;;;;;;;43.80;39.28;;;6.80;78.30;;;;;;5095397;28;20249;-77
2021/03/23 07:14:42;;;;;;;43.35;38.95;;;6.90;78.30;;;;;;5095226;28;20218;-77
2021/03/23 07:17:28;;;;;;;48.50;42.33;;;7.10;77.70;;;;;;5095023;28;20219;-77
2021/03/23 07:19:59;;;;;;;45.92;41.47;;;7.20;78.80;;;;;;5095012;28;20221;-77
2021/03/23 07:22:47;;;;;;;48.45;43.30;;;7.20;80.60;;;;;;5095092;28;20267;-77
2021/03/23 07:25:37;;;;;;;46.25;41.40;;;7.30;78.50;;;;;;5095100;28;20196;-77
2021/03/23 07:28:19;;;;;;;48.97;44.00;;;7.30;77.00;;;;;;5094910;28;20191;-77
2021/03/23 07:30:49;;;;;;;45.17;40.63;;;7.40;77.10;;;;;;5094906;28;20625;-77
2021/03/23 07:33:24;;;;;;;47.28;42.50;;;7.30;77.30;;;;;;5094814;28;20290;-77
2021/03/23 07:35:52;;;;;;;45.55;40.90;;;7.50;76.30;;;;;;5094642;28;20275;-77
2021/03/23 07:38:29;;;;;;;45.00;40.33;;;7.60;76.10;;;;;;5094685;28;20657;-77
2021/03/23 07:40:57;;;;;;;46.35;40.97;;;7.60;77.20;;;;;;5095431;28;20206;-78
2021/03/23 07:43:43;;;;;;;45.92;41.38;;;7.50;79.30;;;;;;5095465;28;20209;-77
2021/03/23 07:46:16;;;;;;;47.88;42.50;;;7.50;75.90;;;;;;5094541;28;20719;-77
2021/03/23 07:48:53;;;;;;;46.85;41.88;;;7.40;75.80;;;;;;5094551;28;20234;-77
2021/03/23 07:51:36;;;;;;;45.13;40.85;;;7.30;75.90;;;;;;5094452;28;20282;-77
2021/03/23 07:54:24;;;;;;;44.83;40.63;;;7.30;75.90;;;;;;5094515;28;20202;-77
2021/03/23 07:57:21;;;;;;;47.53;42.67;;;7.40;76.10;;;;;;5087355;28;20218;-77
2021/03/23 08:00:09;;;;;;;47.78;43.08;;;7.50;75.80;;;;;;5069046;28;20223;-77
2021/03/23 08:02:55;;;;;;;45.80;40.85;;;7.70;75.90;;;;;;5093548;28;20676;-76
2021/03/23 08:05:32;;;;;;;46.08;41.55;;;7.80;75.00;;;;;;5094192;28;20252;-77
2021/03/23 08:08:22;;;;;;;45.05;40.45;;;7.70;76.80;;;;;;5094238;28;20203;-77
2021/03/23 08:11:00;;;;;;;45.47;40.95;;;7.90;75.80;;;;;;5094024;28;20219;-77
2021/03/23 08:13:41;;;;;;;45.60;40.92;;;7.80;74.20;;;;;;5094095;28;20195;-77
2021/03/23 08:16:33;;;;;;;47.85;43.05;;;7.90;74.90;;;;;;5093639;28;20221;-77
2021/03/23 08:19:41;;;;;;;46.03;41.55;;;8.10;75.20;;;;;;5093923;28;20215;-77
2021/03/23 08:22:39;;;;;;;47.75;43.03;;;8.20;77.70;;;;;;5093915;28;20199;-77
2021/03/23 08:25:14;;;;;;;45.30;41.00;;;8.20;75.10;;;;;;5091924;28;20199;-77
2021/03/23 08:28:05;;;;;;;42.08;38.28;;;8.30;73.80;;;;;;5093587;28;20758;-77
2021/03/23 08:30:41;;;;;;;43.97;39.80;;;8.30;72.20;;;;;;5093673;28;20215;-77
2021/03/23 08:33:24;;;;;;;43.58;39.65;;;8.50;72.90;;;;;;5093593;28;20202;-77
2021/03/23 08:36:00;;;;;;;42.55;38.38;;;8.60;72.60;;;;;;5093450;28;20274;-77
2021/03/23 08:38:41;;;;;;;42.58;38.55;;;8.70;71.70;;;;;;5093613;28;20719;-77
2021/03/23 08:41:16;;;;;;;44.10;39.78;;;9.00;71.40;;;;;;5093472;28;20195;-77
2021/03/23 08:43:44;;;;;;;44.00;40.17;;;9.00;70.00;;;;;;5092854;28;20218;-77
2021/03/23 08:46:17;;;;;;;43.65;38.95;;;9.00;69.90;;;;;;5093420;28;20195;-77
2021/03/23 08:48:49;;;;;;;42.47;38.42;;;9.10;70.00;;;;;;5093122;28;20196;-77
2021/03/23 08:51:20;;;;;;;42.97;38.97;;;9.40;69.40;;;;;;5093353;28;20199;-77
2021/03/23 08:53:54;;;;;;;42.53;38.55;;;9.30;68.70;;;;;;5093266;28;20241;-77
2021/03/23 08:56:54;;;;;;;42.63;38.58;;;9.50;68.80;;;;;;5092683;28;20214;-77
2021/03/23 08:59:43;;;;;;;41.67;37.97;;;9.60;68.90;;;;;;5092946;28;20287;-76
2021/03/23 09:02:46;;;;;;;39.17;35.33;;;9.90;67.90;;;;;;5093128;28;20278;-77
2021/03/23 09:05:33;;;;;;;39.47;35.90;;;9.80;66.90;;;;;;5093185;28;20260;-77
2021/03/23 09:08:36;;;;;;;36.27;33.00;;;9.90;65.50;;;;;;5093014;28;20460;-77
2021/03/23 09:11:06;;;;;;;39.90;36.00;;;10.00;64.90;;;;;;5030807;28;20516;-77
2021/03/23 09:14:15;;;;;;;38.13;34.50;;;10.10;64.80;;;;;;5030571;28;20506;-77
2021/03/23 09:17:14;;;;;;;37.83;34.73;;;10.20;64.70;;;;;;5079001;28;20560;-77
2021/03/23 09:19:48;;;;;;;39.60;36.00;;;10.40;63.70;;;;;;5092977;28;20472;-77
2021/03/23 09:22:38;;;;;;;37.87;34.57;;;10.50;63.00;;;;;;5092965;28;20477;-77
2021/03/23 09:25:23;;;;;;;43.20;38.80;;;10.40;63.10;;;;;;5092920;28;20510;-77
2021/03/23 09:28:02;;;;;;;37.97;34.57;;;10.40;64.40;;;;;;5092833;28;20459;-77
2021/03/23 09:31:03;;;;;;;42.20;38.70;;;10.50;65.30;;;;;;5092915;28;20473;-77
2021/03/23 09:33:40;;;;;;;41.27;37.53;;;10.80;72.80;;;;;;5092873;28;20470;-77
2021/03/23 09:36:45;;;;;;;295.00;75.27;;;11.00;64.60;;;;;;5093109;28;21062;-77
2021/03/23 09:39:36;;;;;;;44.60;38.20;;;11.40;62.70;;;;;;5092791;28;20534;-77
2021/03/23 09:42:25;;;;;;;32.57;30.27;;;11.50;60.90;;;;;;5092756;28;20441;-77
2021/03/23 09:45:24;;;;;;;34.37;31.87;;;11.70;60.50;;;;;;5092609;28;20544;-77
2021/03/23 09:47:58;;;;;;;34.30;31.40;;;11.70;61.20;;;;;;5071841;28;20453;-77
2021/03/23 09:50:41;;;;;;;34.43;31.77;;;11.90;63.20;;;;;;5092636;28;20469;-77
2021/03/23 09:53:14;;;;;;;35.13;32.03;;;11.90;57.70;;;;;;5092742;28;20601;-77
2021/03/23 09:55:41;;;;;;;35.53;32.80;;;12.00;56.50;;;;;;5092206;28;20480;-76
2021/03/23 09:58:19;;;;;;;32.20;29.60;;;12.00;56.20;;;;;;5092408;28;20490;-76
2021/03/23 10:00:46;;;;;;;34.43;32.07;;;11.90;56.50;;;;;;5092247;28;20469;-77
2021/03/23 10:03:33;;;;;;;32.17;29.70;;;11.80;55.60;;;;;;5092671;28;20481;-77
2021/03/23 10:06:02;;;;;;;31.90;29.70;;;11.70;55.30;;;;;;5092357;28;20885;-77
2021/03/23 10:08:32;;;;;;;33.40;31.07;;;11.30;56.70;;;;;;5092427;28;20872;-77
2021/03/23 10:11:07;;;;;;;32.87;30.27;;;11.20;57.40;;;;;;5092347;28;20456;-77
2021/03/23 10:13:33;;;;;;;33.27;30.53;;;11.30;56.70;;;;;;5092520;28;20471;-77
2021/03/23 10:16:04;;;;;;;30.80;28.50;;;10.90;56.60;;;;;;5092115;28;20484;-77
2021/03/23 10:18:37;;;;;;;32.40;29.77;;;10.70;57.30;;;;;;5092450;28;20481;-77
2021/03/23 10:21:07;;;;;;;32.50;30.10;;;10.50;57.80;;;;;;5092329;28;20480;-77
2021/03/23 10:23:34;;;;;;;33.33;30.83;;;10.60;58.50;;;;;;5092309;28;20883;-77
2021/03/23 10:26:05;;;;;;;31.40;29.00;;;10.80;57.80;;;;;;5094124;28;20495;-76
2021/03/23 10:28:34;;;;;;;32.73;30.00;;;10.90;57.10;;;;;;5096128;28;20522;-77
2021/03/23 10:31:02;;;;;;;31.00;28.70;;;10.70;57.50;;;;;;5096097;28;20518;-77
2021/03/23 10:33:31;;;;;;;32.27;29.97;;;10.60;56.70;;;;;;5096070;28;20449;-77
2021/03/23 10:36:01;;;;;;;30.37;28.20;;;10.50;57.20;;;;;;5095742;28;20838;-76
2021/03/23 10:38:41;;;;;;;30.33;28.23;;;10.50;57.20;;;;;;5095837;28;20547;-77
2021/03/23 10:41:26;;;;;;;31.37;28.90;;;10.60;57.40;;;;;;5096036;28;20448;-77
2021/03/23 10:44:10;;;;;;;30.10;28.00;;;10.50;57.30;;;;;;5095773;28;20457;-77
2021/03/23 10:46:41;;;;;;;31.47;29.20;;;10.50;57.50;;;;;;5095494;28;20535;-77
2021/03/23 10:49:16;;;;;;;30.77;28.63;;;10.50;56.60;;;;;;5095739;28;20469;-77
2021/03/23 10:51:45;;;;;;;39.00;32.97;;;10.70;55.90;;;;;;5095688;28;20775;-77
2021/03/23 10:54:21;;;;;;;29.90;27.77;;;10.60;56.40;;;;;;5095480;28;20477;-77
2021/03/23 10:56:50;;;;;;;29.60;27.50;;;10.80;55.70;;;;;;5095227;28;20559;-77
2021/03/23 10:59:30;;;;;;;31.60;29.50;;;10.60;55.30;;;;;;5095333;28;20533;-77
2021/03/23 11:02:15;;;;;;;29.73;27.60;;;10.40;56.60;;;;;;5095498;28;20456;-77
2021/03/23 11:05:02;;;;;;;30.57;27.83;;;10.30;57.10;;;;;;5095491;28;20445;-77
2021/03/23 11:07:30;;;;;;;31.97;29.37;;;10.20;57.40;;;;;;5095254;28;20450;-77
2021/03/23 11:10:00;;;;;;;30.23;28.13;;;10.40;57.60;;;;;;5095245;28;20477;-77
2021/03/23 11:12:27;;;;;;;30.07;27.90;;;10.80;56.90;;;;;;5095231;28;20445;-77
2021/03/23 11:14:54;;;;;;;30.40;28.27;;;10.60;56.10;;;;;;5095372;28;20449;-77
2021/03/23 11:17:23;;;;;;;29.57;27.47;;;10.30;56.40;;;;;;5094807;28;20982;-77
2021/03/23 11:19:57;;;;;;;31.47;29.17;;;10.40;56.10;;;;;;5095071;28;20885;-77
2021/03/23 11:22:28;;;;;;;30.33;28.20;;;10.60;55.90;;;;;;5095332;28;20449;-77
2021/03/23 11:24:56;;;;;;;29.80;27.80;;;10.80;55.50;;;;;;5095017;28;20534;-77
2021/03/23 11:27:26;;;;;;;30.90;28.70;;;10.80;55.50;;;;;;5095005;28;20456;-77
2021/03/23 11:29:53;;;;;;;29.47;27.57;;;10.60;56.00;;;;;;5095008;28;20471;-77
2021/03/23 11:32:19;;;;;;;29.23;26.87;;;10.50;56.40;;;;;;5094818;28;20445;-77
2021/03/23 11:34:45;;;;;;;29.20;27.30;;;10.60;59.60;;;;;;5094958;28;20471;-77
2021/03/23 11:37:12;;;;;;;30.37;28.27;;;10.80;56.60;;;;;;5093316;28;20473;-77
2021/03/23 11:39:38;;;;;;;30.93;28.83;;;10.80;55.50;;;;;;5094642;28;20474;-76
2021/03/23 11:42:14;;;;;;;30.50;28.13;;;10.80;55.00;;;;;;5094551;28;20532;-78
2021/03/23 11:44:44;;;;;;;29.60;27.40;;;10.80;55.10;;;;;;5094577;28;20461;-77
2021/03/23 11:47:19;;;;;;;31.00;28.50;;;10.80;56.40;;;;;;5094598;28;20516;-77
2021/03/23 11:49:56;;;;;;;30.83;28.53;;;10.80;55.20;;;;;;5094500;28;20495;-76
2021/03/23 11:52:23;;;;;;;30.00;27.90;;;10.60;55.80;;;;;;5094700;28;20449;-76
2021/03/23 11:54:50;;;;;;;31.77;29.40;;;10.50;56.40;;;;;;5094203;28;20810;-76
2021/03/23 11:57:18;;;;;;;32.60;30.27;;;10.50;56.80;;;;;;5094263;28;21047;-77
2021/03/23 11:59:45;;;;;;;31.70;29.20;;;10.50;57.50;;;;;;5093919;28;20552;-76
2021/03/23 12:02:12;;;;;;;32.20;29.90;;;10.20;58.40;;;;;;5094504;28;20449;-77
2021/03/23 12:04:39;;;;;;;35.07;32.27;;;10.20;58.50;;;;;;5094414;28;20464;-76
2021/03/23 12:07:18;;;;;;;34.97;32.17;;;10.10;58.90;;;;;;5093890;28;20456;-76
2021/03/23 12:09:51;;;;;;;33.43;30.83;;;9.90;59.60;;;;;;5094452;28;20476;-76
2021/03/23 12:12:30;;;;;;;35.30;32.80;;;9.90;59.60;;;;;;5094107;28;20449;-76
2021/03/23 12:15:06;;;;;;;34.28;31.50;;;9.90;59.40;;;;;;5094297;28;20453;-76
2021/03/23 12:17:36;;;;;;;33.50;30.88;;;9.80;60.10;;;;;;5093775;28;20226;-76
2021/03/23 12:20:08;;;;;;;33.70;30.73;;;9.80;59.60;;;;;;5094294;28;20268;-77
2021/03/23 12:22:35;;;;;;;33.47;30.93;;;9.90;59.60;;;;;;5094029;28;20203;-77
2021/03/23 12:25:04;;;;;;;34.27;31.50;;;9.90;59.30;;;;;;5093995;28;20459;-76
2021/03/23 12:27:31;;;;;;;35.92;33.00;;;9.80;59.80;;;;;;5093821;28;20441;-77
2021/03/23 12:30:00;;;;;;;33.67;30.98;;;9.70;60.20;;;;;;5093759;28;20242;-76
2021/03/23 12:32:27;;;;;;;34.67;31.85;;;9.70;60.10;;;;;;5093687;28;20724;-77
2021/03/23 12:34:54;;;;;;;33.75;31.17;;;9.80;59.70;;;;;;5093855;28;20191;-76
2021/03/23 12:37:21;;;;;;;33.50;30.80;;;10.00;59.10;;;;;;5093416;28;20219;-77
2021/03/23 12:39:48;;;;;;;33.05;30.50;;;10.00;59.40;;;;;;5093931;28;20767;-77
2021/03/23 12:42:17;;;;;;;31.50;29.10;;;10.00;59.20;;;;;;5093971;28;20291;-77
2021/03/23 12:44:44;;;;;;;33.47;30.80;;;10.00;59.70;;;;;;5093898;28;20295;-76
2021/03/23 12:47:12;;;;;;;34.37;31.67;;;10.20;59.10;;;;;;5093449;28;20227;-76
2021/03/23 12:49:39;;;;;;;33.70;30.98;;;10.20;59.10;;;;;;5093178;28;20469;-76
2021/03/23 12:52:06;;;;;;;31.90;29.47;;;10.30;58.70;;;;;;5093826;28;20202;-77
2021/03/23 12:54:37;;;;;;;32.10;29.60;;;10.50;58.20;;;;;;5094222;28;20494;-77
2021/03/23 12:57:13;;;;;;;33.17;30.63;;;10.70;57.60;;;;;;5093715;28;20827;-77
2021/03/23 12:59:39;;;;;;;33.30;30.80;;;10.90;57.30;;;;;;5093588;28;20552;-77